Nearby METAR Reports

 

KSJC - San Jose, California, USA
Distance from station: NE 14km
Updated: 10/12/2018 00:53
Mostly cloudy
Mostly cloudy
 Wind from NNW
Wind: NNW 15 km/h
Temperature: 12°C
Dew Point: 8°C
Humidity: 77%
Barometer: 1025.1 hPa
Clouds: Mostly cloudy
Visibility: 14 km
Cloud details: Few Clouds 30 m
Partly cloudy 1981 m
Mostly cloudy 3658 m
2018/12/10 00:53 KSJC 100053Z 33008KT 9SM FEW001 SCT065 BKN120 12/08 A3027 RMK AO2 SLP250 T01170078
KNUQ - Moffett Nas/Mtn, California, USA
Distance from station: N 14km
Updated: 10/12/2018 00:56
Clear
Clear
 Wind from NNW
Wind: NNW 9 km/h
Temperature: 11°C
Dew Point: 8°C
Humidity: 82%
Barometer: 1025.4 hPa
Clouds: Clear
Visibility: 11 km
2018/12/10 00:56 KNUQ 100056Z 34005KT 7SM CLR 11/08 A3028 RMK AO2 SLP256 T01110083 $
 
KPAO - Palo Alto, California, USA
Distance from station: NNW 23km
Updated: 10/12/2018 00:47
Mist, Mostly cloudy
Mist, Mostly cloudy
 Wind from varies
Wind: varies 9 km/h
Temperature: 11°C
Dew Point: 8°C
Humidity: 82%
Barometer: 1025.4 hPa
Summary: Mist
Clouds: Mostly cloudy
Visibility: 11 km
Cloud details: Mostly cloudy 3658 m
2018/12/10 00:47 KPAO 100047Z VRB05KT 07SM BR BKN120 11/08 A3028
KRHV - San Jose/Reid, California, USA
Distance from station: ENE 19km
Updated: 10/12/2018 00:47
Mostly cloudy
Mostly cloudy
 Wind from NW
Wind: NW 9 km/h
Temperature: 12°C
Dew Point: 8°C
Humidity: 77%
Barometer: 1024.4 hPa
Clouds: Mostly cloudy
Visibility: 16 km
Cloud details: Partly cloudy 914 m
Mostly cloudy 3048 m
2018/12/10 00:47 KRHV 100047Z 31005KT 10SM SCT030 BKN100 12/08 A3025
 
KOAK - Oakland, California, USA
Distance from station: NNW 50km
Updated: 10/12/2018 00:53
Mostly cloudy
Mostly cloudy
 Wind from E
Wind: E 17 km/h
Temperature: 11°C
Dew Point: 7°C
Humidity: 77%
Barometer: 1025.4 hPa
Clouds: Mostly cloudy
Visibility: 11 km
Cloud details: Few Clouds 366 m
Few Clouds 914 m
Mostly cloudy 5486 m
2018/12/10 00:53 KOAK 100053Z 08009KT 7SM FEW012 FEW030 BKN180 11/07 A3028 RMK AO2 SLP253 T01110072
KSQL - San Carlos Airpo, California, USA
Distance from station: NW 34km
Updated: 10/12/2018 00:47
Haze, Mostly cloudy
Haze, Mostly cloudy
 Wind from N
Wind: N 7 km/h
Temperature: 12°C
Dew Point: 9°C
Humidity: 82%
Barometer: 1025.1 hPa
Summary: Haze
Clouds: Mostly cloudy
Visibility: 10 km
Cloud details: Mostly cloudy 4572 m
2018/12/10 00:47 KSQL 100047Z 01004KT 6SM HZ BKN150 12/09 A3027
 
KSFO - San Francisco, California, USA
Distance from station: NW 49km
Updated: 10/12/2018 00:56
Haze, Mostly cloudy
Haze, Mostly cloudy
 Wind from calm
Wind: Calm
Temperature: 12°C
Dew Point: 8°C
Humidity: 77%
Barometer: 1024.7 hPa
Summary: Haze
Clouds: Mostly cloudy
Visibility: 10 km
Cloud details: Few Clouds 396 m
Mostly cloudy 4572 m
Mostly cloudy 6096 m
2018/12/10 00:56 KSFO 100056Z 00000KT 6SM HZ FEW013 BKN150 BKN200 12/08 A3026 RMK AO2 SLP247 T01220083
KE16 - San Martin, California, USA
Distance from station: ESE 43km
Updated: 10/12/2018 01:30
Clear
Clear
 Wind from NW
Wind: NW 9 km/h
Temperature: 11°C
Dew Point: 8°C
Humidity: 82%
Barometer: 1025.1 hPa
Clouds: Clear
Visibility: 16 km
2018/12/10 01:30 KE16 100130Z AUTO 32005KT 10SM CLR 11/08 A3027 RMK AO2
 
KWVI - Watsonville, California, USA
Distance from station: SSE 44km
Updated: 10/12/2018 00:53
Clear
Clear
 Wind from SE
Wind: SE 7 km/h
Temperature: 13°C
Dew Point: 8°C
Humidity: 72%
Barometer: 1024 hPa
Clouds: Clear
Visibility: 16 km
2018/12/10 00:53 KWVI 100053Z AUTO 13004KT 10SM CLR 13/08 A3024 RMK AO2 SLP241 T01280083
KHAF - Half Moon Bay, California, USA
Distance from station: WNW 50km
Updated: 10/12/2018 01:40
Few Clouds
Few Clouds
 
Temperature: 12°C
Dew Point: 10°C
Humidity: 88%
Barometer: 1024.7 hPa
Clouds: Few Clouds
Visibility: 13 km
Cloud details: Few Clouds 91 m
2018/12/10 01:40 KHAF 100140Z AUTO 8SM FEW003 12/10 A3026 RMK AO2
 
KHWD - Hayward, California, USA
Distance from station: N 44km
Updated: 10/12/2018 00:54
Clear
Clear
 Wind from NE
Wind: NE 17 km/h
Temperature: 11°C
Dew Point: 7°C
Humidity: 77%
Barometer: 1025.1 hPa
Clouds: Clear
Visibility: 13 km
2018/12/10 00:54 KHWD 100054Z 05009KT 8SM CLR 11/07 A3027 RMK AO2 SLP261 T01110067
KLVK - Livermore, California, USA
Distance from station: NNE 51km
Updated: 10/12/2018 00:53
Mist, Overcast
Mist, Overcast
 Wind from E
Wind: E 6 km/h
Temperature: 8°C
Dew Point: 7°C
Humidity: 93%
Barometer: 1025.4 hPa
Summary: Mist
Clouds: Overcast
Visibility: 5 km
Cloud details: Overcast 183 m
2018/12/10 00:53 KLVK 100053Z 08003KT 3SM BR OVC006 08/07 A3028 RMK AO2 SLP255 T00830072